Time;durP1;ratioP1;P1;durP2;ratioP2;P2;SDS_P1;SDS_P2;PMS_P1;PMS_P2;Temp;Humidity;BMP_temperature;BMP_pressure;BME280_temperature;BME280_humidity;BME280_pressure;Samples;Min_cycle;Max_cycle;Signal;HPM_P1;HPM_P2
2023/09/16 00:00:22;;;;;;;4.00;2.40;;;;;;;10.17;77.30;101330.92;107606;277;113266;-54
2023/09/16 00:03:25;;;;;;;5.70;2.60;;;;;;;10.18;77.24;101327.39;107648;276;95990;-52
2023/09/16 00:06:00;;;;;;;6.00;2.30;;;;;;;10.20;77.13;101328.79;107696;275;96986;-53
2023/09/16 00:08:38;;;;;;;4.60;2.20;;;;;;;10.19;77.00;101325.30;107702;276;120414;-52
2023/09/16 00:11:13;;;;;;;6.00;2.70;;;;;;;10.15;76.80;101321.98;107671;275;105939;-52
2023/09/16 00:13:44;;;;;;;5.80;2.90;;;;;;;10.13;76.76;101322.79;107518;276;114864;-56
2023/09/16 00:16:19;;;;;;;5.50;2.60;;;;;;;10.06;76.81;101323.61;107482;276;94959;-56
2023/09/16 00:18:50;;;;;;;4.00;2.40;;;;;;;9.99;76.86;101318.20;107606;276;96671;-57
2023/09/16 00:21:22;;;;;;;4.10;2.60;;;;;;;9.93;76.83;101319.77;107647;276;120127;-55
2023/09/16 00:23:58;;;;;;;4.30;2.50;;;;;;;9.91;76.92;101320.58;107677;275;106020;-58
2023/09/16 00:26:39;;;;;;;4.20;2.60;;;;;;;9.87;76.93;101320.44;107770;275;114375;-58
2023/09/16 00:29:17;;;;;;;5.20;3.00;;;;;;;9.87;76.88;101321.85;107669;276;94274;-53
2023/09/16 00:31:57;;;;;;;3.30;2.30;;;;;;;9.87;77.00;101320.06;107656;276;97982;-53
2023/09/16 00:34:30;;;;;;;4.60;2.40;;;;;;;9.88;77.11;101323.55;107666;276;120652;-54
2023/09/16 00:37:05;;;;;;;4.80;2.70;;;;;;;9.86;77.14;101324.83;107662;276;105342;-55
2023/09/16 00:39:41;;;;;;;5.70;2.80;;;;;;;9.84;77.16;101324.60;107690;276;114372;-55
2023/09/16 00:42:15;;;;;;;5.60;2.60;;;;;;;9.81;77.06;101322.89;107686;275;96391;-54
2023/09/16 00:44:53;;;;;;;4.00;2.20;;;;;;;9.78;77.11;101318.23;107854;276;96188;-58
2023/09/16 00:47:29;;;;;;;3.40;2.10;;;;;;;9.72;77.22;101317.77;107719;276;121573;-58
2023/09/16 00:50:09;;;;;;;6.80;2.10;;;;;;;9.71;77.31;101317.13;107679;276;105133;-56
2023/09/16 00:52:49;;;;;;;4.30;2.40;;;;;;;9.66;77.41;101316.76;107641;276;114595;-54
2023/09/16 00:55:30;;;;;;;4.70;2.60;;;;;;;9.60;77.54;101320.42;107663;275;96123;-52
2023/09/16 00:58:10;;;;;;;7.50;2.40;;;;;;;9.56;77.49;101321.56;107704;276;98058;-58
2023/09/16 01:00:49;;;;;;;6.60;2.60;;;;;;;9.54;77.64;101318.19;107569;276;120585;-58
2023/09/16 01:03:26;;;;;;;5.40;2.80;;;;;;;9.49;77.79;101319.60;107575;276;105542;-53
2023/09/16 01:06:07;;;;;;;6.50;2.80;;;;;;;9.46;77.99;101323.52;107673;276;112832;-52
2023/09/16 01:08:44;;;;;;;6.50;2.50;;;;;;;9.42;77.96;101319.42;107500;276;98421;-55
2023/09/16 01:11:24;;;;;;;6.10;2.70;;;;;;;9.38;78.06;101319.50;107655;275;97926;-55
2023/09/16 01:13:59;;;;;;;8.00;2.50;;;;;;;9.32;78.30;101314.95;107679;275;120962;-52
2023/09/16 01:16:49;;;;;;;5.20;2.70;;;;;;;9.28;78.40;101316.60;107646;276;105697;-52
2023/09/16 01:19:48;;;;;;;5.70;2.60;;;;;;;9.25;78.58;101317.14;107650;276;115782;-53
2023/09/16 01:22:26;;;;;;;5.90;2.30;;;;;;;9.24;78.79;101320.85;107681;276;96271;-52
2023/09/16 01:25:03;;;;;;;4.80;2.30;;;;;;;9.22;78.88;101315.06;107745;276;96579;-52
2023/09/16 01:27:44;;;;;;;5.20;2.70;;;;;;;9.22;78.91;101316.87;107666;275;120767;-52
2023/09/16 01:30:21;;;;;;;5.20;2.80;;;;;;;9.20;79.09;101317.79;107651;276;108308;-58
2023/09/16 01:33:00;;;;;;;3.50;2.40;;;;;;;9.18;79.18;101318.41;107696;276;112955;-53
2023/09/16 01:35:39;;;;;;;4.70;2.50;;;;;;;9.15;79.39;101315.81;107701;276;95258;-53
2023/09/16 01:38:20;;;;;;;4.90;3.20;;;;;;;9.14;79.41;101313.77;107712;275;97628;-56
2023/09/16 01:41:07;;;;;;;5.10;2.80;;;;;;;9.15;79.45;101313.51;107665;276;120477;-57
2023/09/16 01:43:45;;;;;;;4.30;2.50;;;;;;;9.15;79.48;101313.15;107701;276;106150;-52
2023/09/16 01:46:19;;;;;;;7.80;3.00;;;;;;;9.13;79.54;101310.70;107605;276;114107;-52
2023/09/16 01:48:54;;;;;;;6.50;2.70;;;;;;;9.13;79.59;101308.52;107667;276;95648;-56
2023/09/16 01:51:26;;;;;;;5.30;2.20;;;;;;;9.15;79.65;101301.65;107649;276;97729;-56
2023/09/16 01:53:59;;;;;;;5.60;2.60;;;;;;;9.20;79.63;101301.25;107641;276;120964;-57
2023/09/16 01:56:30;;;;;;;5.00;3.00;;;;;;;9.27;79.81;101304.52;107642;276;104593;-57
2023/09/16 01:59:04;;;;;;;9.10;2.70;;;;;;;9.30;79.71;101304.05;107676;276;113710;-58
2023/09/16 02:01:46;;;;;;;5.10;2.60;;;;;;;9.35;79.79;101304.17;107723;276;96420;-58
2023/09/16 02:04:28;;;;;;;5.90;2.50;;;;;;;9.38;79.68;101303.52;107747;276;98134;-54
2023/09/16 02:07:04;;;;;;;6.10;2.40;;;;;;;9.42;79.90;101305.49;107542;276;119333;-55
2023/09/16 02:09:41;;;;;;;6.00;2.90;;;;;;;9.38;79.69;101306.52;107746;276;105024;-56
2023/09/16 02:12:21;;;;;;;5.90;3.50;;;;;;;9.34;79.85;101307.34;107587;276;113153;-56
2023/09/16 02:14:56;;;;;;;5.00;2.80;;;;;;;9.30;79.70;101308.52;107673;276;96716;-54
2023/09/16 02:17:34;;;;;;;7.40;3.20;;;;;;;9.26;79.83;101304.92;107657;276;98664;-54
2023/09/16 02:20:11;;;;;;;8.20;4.40;;;;;;;9.23;79.77;101306.36;107673;275;119958;-52
2023/09/16 02:22:46;;;;;;;8.10;2.90;;;;;;;9.18;79.93;101311.38;107721;276;104339;-55
2023/09/16 02:25:21;;;;;;;7.10;2.70;;;;;;;9.12;79.97;101308.82;107636;276;115526;-57
2023/09/16 02:27:54;;;;;;;5.30;3.30;;;;;;;9.08;79.88;101309.89;107646;276;96035;-57
2023/09/16 02:30:30;;;;;;;5.50;2.80;;;;;;;9.08;79.97;101310.48;107714;276;97092;-58
2023/09/16 02:33:08;;;;;;;5.00;2.80;;;;;;;9.11;79.97;101311.04;107745;276;120078;-58
2023/09/16 02:35:47;;;;;;;5.70;3.00;;;;;;;9.13;80.08;101309.79;107733;275;105735;-58
2023/09/16 02:38:28;;;;;;;7.50;3.20;;;;;;;9.17;80.09;101310.99;107670;276;114393;-56
2023/09/16 02:41:09;;;;;;;5.80;3.00;;;;;;;9.23;80.24;101309.11;107551;276;96609;-56
2023/09/16 02:43:56;;;;;;;8.60;3.20;;;;;;;9.22;80.29;101308.48;107625;276;97489;-52
2023/09/16 02:46:32;;;;;;;4.40;2.70;;;;;;;9.16;80.19;101313.92;107645;276;119715;-53
2023/09/16 02:49:17;;;;;;;5.10;3.30;;;;;;;9.11;80.36;101314.26;107628;275;104397;-53
2023/09/16 02:51:59;;;;;;;5.70;3.10;;;;;;;9.06;80.36;101319.78;107598;276;114160;-53
2023/09/16 02:54:41;;;;;;;5.60;3.20;;;;;;;8.99;80.41;101315.52;107710;276;97478;-58
2023/09/16 02:57:16;;;;;;;6.50;3.00;;;;;;;8.96;80.50;101312.63;107741;276;97846;-59
2023/09/16 02:59:59;;;;;;;6.70;2.70;;;;;;;8.92;80.49;101313.00;107774;276;121080;-58
2023/09/16 03:02:37;;;;;;;5.60;3.70;;;;;;;8.88;80.46;101314.86;107806;276;105886;-58
2023/09/16 03:05:19;;;;;;;6.20;3.00;;;;;;;8.83;80.59;101316.36;107697;276;114319;-54
2023/09/16 03:07:57;;;;;;;6.80;3.00;;;;;;;8.78;80.64;101318.74;107677;275;97139;-57
2023/09/16 03:10:38;;;;;;;9.20;3.30;;;;;;;8.72;80.78;101317.55;107847;276;96292;-57
2023/09/16 03:13:18;;;;;;;5.50;3.20;;;;;;;8.66;80.84;101321.91;107674;276;120736;-59
2023/09/16 03:16:19;;;;;;;4.80;2.70;;;;;;;8.62;81.11;101321.27;107669;276;105568;-59
2023/09/16 03:18:58;;;;;;;5.50;2.90;;;;;;;8.59;81.16;101328.55;107673;276;114232;-55
2023/09/16 03:21:36;;;;;;;5.50;2.60;;;;;;;8.56;81.21;101324.44;107453;276;96694;-55
2023/09/16 03:24:10;;;;;;;5.80;2.90;;;;;;;8.56;81.28;101327.27;107624;275;97688;-57
2023/09/16 03:26:41;;;;;;;5.60;3.10;;;;;;;8.54;81.56;101326.59;107640;275;120833;-54
2023/09/16 03:29:12;;;;;;;6.10;2.70;;;;;;;8.52;81.44;101324.83;107664;276;104729;-53
2023/09/16 03:31:46;;;;;;;5.10;2.80;;;;;;;8.52;81.50;101329.11;107661;276;113644;-53
2023/09/16 03:34:18;;;;;;;6.80;3.20;;;;;;;8.50;81.67;101332.69;107733;276;97261;-52
2023/09/16 03:36:57;;;;;;;6.60;3.40;;;;;;;8.47;81.75;101334.99;107698;276;96554;-53
2023/09/16 03:39:30;;;;;;;7.50;3.40;;;;;;;8.41;81.74;101332.80;107743;275;120183;-52
2023/09/16 03:42:04;;;;;;;5.70;3.10;;;;;;;8.37;81.91;101329.94;107716;276;104836;-52
2023/09/16 03:44:44;;;;;;;7.70;3.00;;;;;;;8.36;81.95;101326.97;107673;276;114396;-55
2023/09/16 03:47:29;;;;;;;5.50;3.40;;;;;;;8.35;82.10;101325.48;107662;276;94845;-57
2023/09/16 03:50:09;;;;;;;7.00;3.10;;;;;;;8.38;82.39;101325.89;107766;275;98159;-57
2023/09/16 03:52:42;;;;;;;7.20;3.20;;;;;;;8.45;82.41;101326.42;107651;275;119193;-55
2023/09/16 03:55:19;;;;;;;5.70;3.20;;;;;;;8.49;82.48;101324.45;107640;276;105854;-53
2023/09/16 03:58:00;;;;;;;7.30;3.20;;;;;;;8.45;82.37;101328.57;106732;271;1042816;-53
2023/09/16 04:00:36;;;;;;;4.10;2.70;;;;;;;8.42;82.30;101326.18;107664;276;96961;-55
2023/09/16 04:03:12;;;;;;;;;;;;;;;8.42;82.45;101325.51;107732;275;97573;-55
2023/09/16 04:05:56;;;;;;;8.20;4.30;;;;;;;8.39;82.49;101324.37;107609;275;120807;-56
2023/09/16 04:08:33;;;;;;;7.20;3.30;;;;;;;8.38;82.62;101330.69;107620;276;104183;-56
2023/09/16 04:11:08;;;;;;;6.70;3.40;;;;;;;8.40;82.63;101331.05;107605;275;114510;-55
2023/09/16 04:13:46;;;;;;;5.50;3.30;;;;;;;8.43;82.90;101328.85;107690;275;95788;-56
2023/09/16 04:16:25;;;;;;;6.20;3.90;;;;;;;8.44;82.71;101330.69;107722;276;97528;-56
2023/09/16 04:19:03;;;;;;;5.80;3.70;;;;;;;8.44;82.84;101328.15;107665;275;120268;-55
2023/09/16 04:21:41;;;;;;;7.30;3.30;;;;;;;8.44;82.91;101331.01;107620;276;103849;-56
2023/09/16 04:24:21;;;;;;;5.20;3.00;;;;;;;8.44;82.96;101329.38;107721;275;114060;-56
2023/09/16 04:26:58;;;;;;;5.60;3.50;;;;;;;8.44;83.02;101325.12;107644;276;96803;-56
2023/09/16 04:29:35;;;;;;;9.70;3.70;;;;;;;8.49;83.26;101325.08;107746;275;96903;-58
2023/09/16 04:32:08;;;;;;;7.60;4.00;;;;;;;8.61;83.36;101319.07;107595;276;120880;-58
2023/09/16 04:34:47;;;;;;;5.80;3.40;;;;;;;8.72;83.40;101317.56;107551;276;104360;-58
2023/09/16 04:37:24;;;;;;;10.80;3.50;;;;;;;8.84;83.50;101315.63;107701;276;114569;-58
2023/09/16 04:40:07;;;;;;;6.10;3.30;;;;;;;8.98;83.78;101320.19;107722;276;97537;-57
2023/09/16 04:42:40;;;;;;;6.40;3.50;;;;;;;9.11;83.84;101320.35;107722;276;96686;-58
2023/09/16 04:45:13;;;;;;;10.30;4.00;;;;;;;9.24;83.90;101316.92;107732;276;119521;-58
2023/09/16 04:47:45;;;;;;;5.60;3.20;;;;;;;9.38;83.78;101313.98;107837;276;102809;-55
2023/09/16 04:50:21;;;;;;;7.90;3.70;;;;;;;9.51;84.00;101311.48;107676;276;115021;-54
2023/09/16 04:52:53;;;;;;;6.90;3.70;;;;;;;9.68;84.21;101313.09;107647;276;96811;-56
2023/09/16 04:55:31;;;;;;;7.10;4.00;;;;;;;9.83;84.06;101319.20;107699;276;97938;-56
2023/09/16 04:58:23;;;;;;;6.90;3.80;;;;;;;9.99;83.98;101320.75;107684;276;120606;-52
2023/09/16 05:00:59;;;;;;;9.50;3.80;;;;;;;10.15;83.80;101322.11;107690;276;105446;-53
2023/09/16 05:03:38;;;;;;;6.80;4.20;;;;;;;10.29;83.85;101319.20;107718;276;114431;-54
2023/09/16 05:06:15;;;;;;;8.80;3.90;;;;;;;10.45;83.85;101320.98;107702;276;96800;-52
2023/09/16 05:08:54;;;;;;;6.20;3.80;;;;;;;10.61;84.15;101320.53;107718;276;97711;-58
2023/09/16 05:11:33;;;;;;;7.50;4.20;;;;;;;10.76;83.89;101321.52;107697;276;119897;-57
2023/09/16 05:14:09;;;;;;;9.40;3.80;;;;;;;11.17;84.54;101320.60;107707;275;104138;-56
2023/09/16 05:16:45;;;;;;;6.50;3.70;;;;;;;12.38;84.58;101321.98;107652;275;113590;-56
2023/09/16 05:19:23;;;;;;;8.70;4.10;;;;;;;12.89;82.74;101321.37;107673;275;94076;-56
2023/09/16 05:21:56;;;;;;;7.80;4.00;;;;;;;13.07;82.15;101324.80;107701;276;98484;-57
2023/09/16 05:24:40;;;;;;;6.10;4.00;;;;;;;13.09;81.63;101325.14;107718;275;120852;-54
2023/09/16 05:27:22;;;;;;;7.50;4.00;;;;;;;13.24;81.43;101328.52;107645;275;104060;-54
2023/09/16 05:30:02;;;;;;;5.90;3.70;;;;;;;13.20;80.95;101331.08;107684;276;115206;-54
2023/09/16 05:32:45;;;;;;;5.80;3.50;;;;;;;13.09;80.66;101330.93;107632;276;95355;-56
2023/09/16 05:35:24;;;;;;;5.80;3.80;;;;;;;13.02;80.50;101330.09;107711;275;97737;-56
2023/09/16 05:37:57;;;;;;;6.80;4.10;;;;;;;13.03;80.33;101334.69;107597;276;118872;-57
2023/09/16 05:40:31;;;;;;;6.00;3.40;;;;;;;13.09;80.21;101334.02;107815;275;103957;-59
2023/09/16 05:43:08;;;;;;;6.40;3.80;;;;;;;13.17;80.09;101330.13;107843;276;113002;-55
2023/09/16 05:45:45;;;;;;;5.90;3.70;;;;;;;13.30;79.99;101330.58;107708;276;95087;-54
2023/09/16 05:48:24;;;;;;;8.30;3.80;;;;;;;13.91;79.70;101325.35;107703;276;97234;-55
2023/09/16 05:51:04;;;;;;;8.20;4.00;;;;;;;15.23;78.58;101325.18;107671;276;122225;-56
2023/09/16 05:53:39;;;;;;;5.60;3.60;;;;;;;16.69;76.54;101315.96;107548;276;108129;-53
2023/09/16 05:56:16;;;;;;;5.40;3.30;;;;;;;18.22;74.66;101317.81;107664;276;115532;-55
2023/09/16 05:58:50;;;;;;;8.90;3.80;;;;;;;19.65;72.60;101312.59;107787;275;95107;-55
2023/09/16 06:01:25;;;;;;;7.10;3.50;;;;;;;20.12;71.23;101313.33;107772;276;97778;-57
2023/09/16 06:03:59;;;;;;;5.70;3.70;;;;;;;19.91;69.16;101313.08;107726;275;118325;-56
2023/09/16 06:06:43;;;;;;;6.20;4.20;;;;;;;19.53;67.73;101320.11;107682;276;105952;-56
2023/09/16 06:09:22;;;;;;;6.80;3.60;;;;;;;19.12;67.01;101322.83;107747;275;115264;-53
2023/09/16 06:12:00;;;;;;;4.70;3.50;;;;;;;18.61;67.11;101330.09;107465;276;93887;-54
2023/09/16 06:14:38;;;;;;;5.00;3.10;;;;;;;17.99;66.97;101331.30;107738;275;97692;-54
2023/09/16 06:17:17;;;;;;;6.50;3.80;;;;;;;17.54;67.40;101333.27;107648;276;120430;-53
2023/09/16 06:19:58;;;;;;;7.30;4.10;;;;;;;17.23;67.37;101336.92;107527;276;104823;-55
2023/09/16 06:22:40;;;;;;;6.70;3.60;;;;;;;16.95;67.69;101339.38;107678;276;113667;-56
2023/09/16 06:25:18;;;;;;;6.00;3.50;;;;;;;16.79;67.89;101339.73;107665;276;94059;-56
2023/09/16 06:28:04;;;;;;;7.40;4.20;;;;;;;16.62;67.84;101340.27;107719;276;98605;-56
2023/09/16 06:30:40;;;;;;;5.50;3.60;;;;;;;16.52;68.24;101338.55;107671;276;119175;-56
2023/09/16 06:33:17;;;;;;;12.10;6.60;;;;;;;16.48;68.37;101342.30;107644;276;105969;-57
2023/09/16 06:35:54;;;;;;;7.70;3.90;;;;;;;16.47;68.19;101344.73;107493;276;113348;-56
2023/09/16 06:38:30;;;;;;;7.20;3.50;;;;;;;16.50;68.74;101338.37;107586;277;92932;-59
2023/09/16 06:41:04;;;;;;;5.30;3.60;;;;;;;16.70;68.32;101341.77;107884;276;96550;-59
2023/09/16 06:43:45;;;;;;;6.00;3.70;;;;;;;16.64;68.06;101336.71;107671;276;120510;-54
2023/09/16 06:46:28;;;;;;;4.30;3.50;;;;;;;16.45;68.39;101335.04;107690;276;105154;-54
2023/09/16 06:49:05;;;;;;;5.40;3.40;;;;;;;16.44;68.55;101335.00;107634;276;114652;-53
2023/09/16 06:51:40;;;;;;;5.20;3.50;;;;;;;16.45;68.32;101332.30;107499;276;95223;-57
2023/09/16 06:54:16;;;;;;;6.00;3.40;;;;;;;16.54;68.36;101334.66;107890;275;97902;-58
2023/09/16 06:56:55;;;;;;;5.10;3.30;;;;;;;16.96;68.24;101332.11;107935;276;120550;-58
2023/09/16 06:59:35;;;;;;;5.40;3.80;;;;;;;17.14;67.77;101327.38;107728;275;106005;-54
2023/09/16 07:02:16;;;;;;;7.30;3.80;;;;;;;17.13;68.01;101328.91;107687;273;113832;-54
2023/09/16 07:04:51;;;;;;;6.60;3.00;;;;;;;17.24;68.18;101330.13;107618;276;94886;-56
2023/09/16 07:07:27;;;;;;;3.80;2.90;;;;;;;17.39;68.08;101332.05;107680;276;96954;-56
2023/09/16 07:10:08;;;;;;;5.70;3.20;;;;;;;17.47;67.68;101335.12;107701;276;121630;-55
2023/09/16 07:12:48;;;;;;;5.60;3.60;;;;;;;17.82;67.79;101331.34;107705;276;103789;-55
2023/09/16 07:15:26;;;;;;;7.30;3.60;;;;;;;17.99;67.05;101330.16;107697;275;113074;-59
2023/09/16 07:17:59;;;;;;;6.30;3.40;;;;;;;17.98;66.16;101330.63;107766;276;94088;-59
2023/09/16 07:20:36;;;;;;;6.00;3.10;;;;;;;17.94;65.60;101333.73;107510;276;96414;-61
2023/09/16 07:23:11;;;;;;;5.00;3.10;;;;;;;17.88;65.75;101330.07;107651;276;120594;-59
2023/09/16 07:25:59;;;;;;;4.50;3.00;;;;;;;17.81;65.55;101330.95;107684;276;103940;-58
2023/09/16 07:28:40;;;;;;;4.20;3.20;;;;;;;17.71;65.42;101332.54;107756;276;114650;-59
2023/09/16 07:31:18;;;;;;;5.40;3.00;;;;;;;17.71;65.40;101331.49;107893;276;93245;-60
2023/09/16 07:33:56;;;;;;;5.00;3.10;;;;;;;17.69;65.46;101334.56;107656;276;98133;-54
2023/09/16 07:36:34;;;;;;;6.00;3.30;;;;;;;17.66;65.37;101338.86;107678;276;120410;-54
2023/09/16 07:39:12;;;;;;;4.70;3.10;;;;;;;17.62;65.50;101334.45;107652;276;104010;-56
2023/09/16 07:41:49;;;;;;;4.70;3.10;;;;;;;17.60;65.38;101336.27;107512;276;113741;-56
2023/09/16 07:44:26;;;;;;;5.10;2.80;;;;;;;17.77;65.77;101333.32;107546;276;96484;-59
2023/09/16 07:47:03;;;;;;;4.40;3.00;;;;;;;18.22;65.72;101333.77;107864;276;98009;-60
2023/09/16 07:49:50;;;;;;;4.00;3.10;;;;;;;18.84;65.23;101333.98;107949;276;121208;-59
2023/09/16 07:52:32;;;;;;;4.20;2.90;;;;;;;19.65;64.33;101321.37;107841;275;105177;-60
2023/09/16 07:55:08;;;;;;;4.60;2.70;;;;;;;20.22;64.25;101319.60;107888;275;113015;-60
2023/09/16 07:57:42;;;;;;;6.40;3.00;;;;;;;21.99;63.35;101319.67;107940;275;92626;-60
2023/09/16 08:00:17;;;;;;;4.50;2.70;;;;;;;23.66;59.46;101319.73;107714;276;97284;-55
2023/09/16 08:02:53;;;;;;;5.70;2.70;;;;;;;25.06;57.70;101316.83;107698;275;119753;-56
2023/09/16 08:05:27;;;;;;;3.90;2.70;;;;;;;26.35;54.98;101309.83;107723;276;104981;-55
2023/09/16 08:08:10;;;;;;;4.70;2.60;;;;;;;27.11;53.30;101314.65;107790;276;114617;-58
2023/09/16 08:10:51;;;;;;;3.70;2.50;;;;;;;27.87;51.77;101308.92;107837;276;94007;-60
2023/09/16 08:13:25;;;;;;;6.00;3.10;;;;;;;28.69;49.27;101306.34;107887;275;96926;-57
2023/09/16 08:16:07;;;;;;;4.20;3.10;;;;;;;29.08;47.14;101304.96;107646;276;120342;-57
2023/09/16 08:18:43;;;;;;;3.30;2.70;;;;;;;29.60;46.32;101299.85;107680;276;105438;-55
2023/09/16 08:21:19;;;;;;;6.00;2.90;;;;;;;29.95;45.51;101294.15;107644;275;114513;-55
2023/09/16 08:23:56;;;;;;;4.80;2.80;;;;;;;29.90;43.57;101293.08;107828;276;94204;-61
2023/09/16 08:26:34;;;;;;;2.90;2.60;;;;;;;29.42;41.25;101291.88;107984;276;97156;-60
2023/09/16 08:29:12;;;;;;;4.50;3.10;;;;;;;28.31;40.71;101287.17;107640;276;120770;-61
2023/09/16 08:31:49;;;;;;;4.60;2.50;;;;;;;27.60;42.11;101288.55;107760;276;105187;-60
2023/09/16 08:34:30;;;;;;;3.70;2.80;;;;;;;27.40;42.71;101292.83;107805;276;112275;-60
2023/09/16 08:37:04;;;;;;;5.50;2.60;;;;;;;27.70;43.04;101287.64;107749;276;95564;-60
2023/09/16 08:39:43;;;;;;;4.80;2.80;;;;;;;28.07;42.95;101292.00;107805;276;97221;-61
2023/09/16 08:42:31;;;;;;;4.00;2.70;;;;;;;28.82;42.80;101296.12;107724;276;119683;-61
2023/09/16 08:45:18;;;;;;;3.00;2.40;;;;;;;29.62;42.30;101297.92;107605;276;105954;-57
2023/09/16 08:48:01;;;;;;;3.10;2.50;;;;;;;30.19;41.17;101294.30;107658;275;114178;-60
2023/09/16 08:50:35;;;;;;;4.30;2.40;;;;;;;30.11;39.65;101295.56;107787;275;92756;-61
2023/09/16 08:53:22;;;;;;;3.20;2.60;;;;;;;30.09;39.20;101292.30;107882;275;97957;-61
2023/09/16 08:55:59;;;;;;;3.70;2.60;;;;;;;29.77;38.09;101287.41;107751;276;118912;-61
2023/09/16 08:58:36;;;;;;;4.60;2.70;;;;;;;29.10;37.97;101288.30;107674;277;106118;-55
2023/09/16 09:01:10;;;;;;;5.70;2.70;;;;;;;28.56;38.81;101285.27;107534;276;113547;-55
2023/09/16 09:03:51;;;;;;;3.00;2.70;;;;;;;28.06;38.66;101282.04;107483;276;92874;-58
2023/09/16 09:06:36;;;;;;;3.80;2.70;;;;;;;27.28;39.02;101285.02;107713;276;98085;-57
2023/09/16 09:09:09;;;;;;;4.30;2.60;;;;;;;26.87;40.12;101284.22;107656;275;121820;-57
2023/09/16 09:11:41;;;;;;;4.60;2.60;;;;;;;26.74;40.17;101283.31;107665;276;104010;-59
2023/09/16 09:14:26;;;;;;;3.80;2.30;;;;;;;26.57;39.87;101286.58;107858;275;114426;-61
2023/09/16 09:17:12;;;;;;;4.10;2.60;;;;;;;26.44;40.52;101287.81;107914;275;95193;-60
2023/09/16 09:19:52;;;;;;;4.10;2.60;;;;;;;26.64;40.67;101287.48;107925;276;97058;-60
2023/09/16 09:22:36;;;;;;;3.80;2.80;;;;;;;26.89;41.07;101285.88;107865;276;122079;-61
2023/09/16 09:25:22;;;;;;;4.50;2.70;;;;;;;27.32;40.78;101282.17;108025;276;104879;-61
2023/09/16 09:28:05;;;;;;;4.80;2.70;;;;;;;27.22;40.41;101280.34;107890;276;113499;-58
2023/09/16 09:30:46;;;;;;;3.20;2.40;;;;;;;27.18;40.18;101287.56;107655;276;94517;-57
2023/09/16 09:33:40;;;;;;;3.80;2.10;;;;;;;26.72;39.94;101277.91;107690;276;96933;-56
2023/09/16 09:36:16;;;;;;;4.10;2.50;;;;;;;25.85;40.20;101278.52;107552;276;120513;-57
2023/09/16 09:38:57;;;;;;;4.20;2.50;;;;;;;25.38;40.98;101275.15;107748;276;104378;-56
2023/09/16 09:41:49;;;;;;;4.30;2.60;;;;;;;24.92;41.39;101269.95;107722;275;114520;-57
2023/09/16 09:44:26;;;;;;;3.50;2.50;;;;;;;24.40;42.17;101264.77;107939;276;94945;-60
2023/09/16 09:47:04;;;;;;;5.10;2.90;;;;;;;24.19;43.04;101259.33;108011;275;98110;-60
2023/09/16 09:49:40;;;;;;;3.90;2.20;;;;;;;24.15;43.84;101251.22;107952;276;121326;-60
2023/09/16 09:52:20;;;;;;;4.80;2.30;;;;;;;23.97;43.91;101253.84;107655;276;104842;-59
2023/09/16 09:55:00;;;;;;;4.10;2.50;;;;;;;23.60;43.97;101251.23;107685;275;114508;-58
2023/09/16 09:57:34;;;;;;;4.50;2.70;;;;;;;23.36;44.16;101257.48;107673;275;93524;-57
2023/09/16 10:00:13;;;;;;;3.30;2.40;;;;;;;23.12;44.57;101248.27;107680;275;98122;-56
2023/09/16 10:02:52;;;;;;;4.30;2.90;;;;;;;22.90;44.85;101244.05;107725;275;121043;-56
2023/09/16 10:05:27;;;;;;;4.70;2.60;;;;;;;22.73;45.07;101243.48;107660;276;104162;-56
2023/09/16 10:07:59;;;;;;;5.30;2.80;;;;;;;22.64;45.73;101242.77;107692;276;113740;-55
2023/09/16 10:10:38;;;;;;;5.00;2.50;;;;;;;22.71;45.91;101235.56;107646;275;94492;-55
2023/09/16 10:13:11;;;;;;;5.50;2.60;;;;;;;22.76;46.26;101232.90;107670;275;96771;-56
2023/09/16 10:15:46;;;;;;;3.10;2.50;;;;;;;22.69;46.22;101238.83;107688;276;119617;-56
2023/09/16 10:18:21;;;;;;;3.60;2.70;;;;;;;22.67;46.15;101237.48;107689;276;104098;-59
2023/09/16 10:20:56;;;;;;;4.70;2.70;;;;;;;22.60;46.34;101238.04;107713;276;112609;-59
2023/09/16 10:23:42;;;;;;;3.80;2.80;;;;;;;22.60;46.37;101229.70;107878;275;94972;-60
2023/09/16 10:26:19;;;;;;;4.40;2.60;;;;;;;22.56;46.68;101227.17;107820;276;98352;-59
2023/09/16 10:28:57;;;;;;;5.10;2.70;;;;;;;22.58;46.68;101227.80;107834;276;118947;-59
2023/09/16 10:31:29;;;;;;;4.00;2.50;;;;;;;22.57;46.34;101225.31;107908;276;105319;-59
2023/09/16 10:34:15;;;;;;;4.30;2.90;;;;;;;22.49;46.44;101217.95;107844;275;114637;-59
2023/09/16 10:36:56;;;;;;;3.50;2.70;;;;;;;22.51;46.71;101203.61;107853;276;94714;-59
2023/09/16 10:39:38;;;;;;;4.50;2.80;;;;;;;22.62;46.92;101203.17;107718;276;99368;-59
2023/09/16 10:42:17;;;;;;;3.20;2.60;;;;;;;22.60;46.19;101212.28;107698;276;121855;-59
2023/09/16 10:44:57;;;;;;;3.40;2.50;;;;;;;22.51;46.13;101204.15;107880;276;104585;-59
2023/09/16 10:47:33;;;;;;;3.90;2.60;;;;;;;22.42;45.88;101205.77;107697;276;114935;-59
2023/09/16 10:50:08;;;;;;;5.90;2.50;;;;;;;22.35;46.11;101199.23;107703;275;94130;-54
2023/09/16 10:52:47;;;;;;;3.50;2.20;;;;;;;22.50;46.71;101196.33;107701;275;96860;-54
2023/09/16 10:55:33;;;;;;;4.00;2.30;;;;;;;22.68;46.75;101194.02;107837;276;119213;-58
2023/09/16 10:58:18;;;;;;;2.90;2.30;;;;;;;22.74;46.30;101190.00;107637;276;105437;-62
2023/09/16 11:00:54;;;;;;;5.50;2.60;;;;;;;22.64;45.70;101190.59;107809;276;113509;-58
2023/09/16 11:03:31;;;;;;;5.00;2.50;;;;;;;22.50;45.76;101189.81;107796;276;94608;-55
2023/09/16 11:06:09;;;;;;;3.80;2.70;;;;;;;22.49;46.05;101181.32;107708;276;97622;-55
2023/09/16 11:08:43;;;;;;;7.30;2.80;;;;;;;22.51;45.91;101177.63;107597;276;119726;-58
2023/09/16 11:11:21;;;;;;;3.90;3.10;;;;;;;22.45;46.26;101174.43;107682;275;106451;-58
2023/09/16 11:14:00;;;;;;;3.70;2.50;;;;;;;22.38;46.21;101168.58;107656;275;114993;-57
2023/09/16 11:16:44;;;;;;;4.20;2.80;;;;;;;22.33;46.55;101162.27;107675;276;94994;-56
2023/09/16 11:19:34;;;;;;;4.40;3.10;;;;;;;22.37;46.73;101161.60;107723;276;97319;-57
2023/09/16 11:22:07;;;;;;;4.50;2.70;;;;;;;22.35;46.22;101158.05;107630;276;120454;-58
2023/09/16 11:24:58;;;;;;;3.20;2.80;;;;;;;22.39;46.82;101156.58;107846;276;105629;-59
2023/09/16 11:27:35;;;;;;;3.50;2.60;;;;;;;22.36;46.18;101156.53;107935;276;112965;-58
2023/09/16 11:30:17;;;;;;;4.50;2.70;;;;;;;22.31;46.28;101156.55;107662;276;92573;-58
2023/09/16 11:33:27;;;;;;;4.80;2.60;;;;;;;22.28;46.28;101151.82;107665;275;98009;-60
2023/09/16 11:36:16;;;;;;;3.60;2.70;;;;;;;22.31;46.54;101152.20;107661;276;120617;-60
2023/09/16 11:39:17;;;;;;;4.90;2.50;;;;;;;22.27;46.31;101142.83;107728;275;105916;-60
2023/09/16 11:41:53;;;;;;;3.60;2.70;;;;;;;22.22;46.01;101141.24;107649;276;114855;-60
2023/09/16 11:44:29;;;;;;;3.50;2.40;;;;;;;22.23;46.57;101132.55;107655;275;94227;-60
2023/09/16 11:47:02;;;;;;;;;;;;;;;22.27;46.40;101128.17;107689;275;96702;-61
2023/09/16 11:49:45;;;;;;;5.60;2.90;;;;;;;22.23;46.43;101124.13;107736;275;121676;-60
2023/09/16 11:52:25;;;;;;;5.00;2.80;;;;;;;22.26;46.65;101123.04;107678;275;105913;-60
2023/09/16 11:54:57;;;;;;;4.70;2.60;;;;;;;22.25;46.67;101115.97;107651;275;112717;-59
2023/09/16 11:57:36;;;;;;;5.20;3.20;;;;;;;22.25;46.57;101106.33;107018;275;819321;-60
2023/09/16 12:00:11;;;;;;;4.20;2.50;;;;;;;22.33;46.92;101102.08;107615;275;97618;-62
2023/09/16 12:02:51;;;;;;;4.60;2.30;;;;;;;22.42;46.90;101099.75;107718;275;120719;-62
2023/09/16 12:05:29;;;;;;;2.90;2.30;;;;;;;22.45;46.66;101106.58;107674;276;104194;-60
2023/09/16 12:08:10;;;;;;;3.90;2.30;;;;;;;22.40;46.77;101097.57;107739;276;114788;-60
2023/09/16 12:10:48;;;;;;;3.40;2.70;;;;;;;22.38;46.84;101091.48;107729;276;93648;-59
2023/09/16 12:13:30;;;;;;;4.40;2.60;;;;;;;22.36;46.66;101087.31;107734;276;97303;-60
2023/09/16 12:16:03;;;;;;;4.90;2.80;;;;;;;22.31;46.50;101077.30;107675;276;117978;-59